sensor_id;sensor_type;location;lat;lon;timestamp;P1;durP1;ratioP1;P2;durP2;ratioP2
7487;SDS011;3785;52.260;4.728;2023-03-31T00:02:00;6.15;;;1.45;;
7487;SDS011;3785;52.260;4.728;2023-03-31T00:05:21;6.68;;;1.52;;
7487;SDS011;3785;52.260;4.728;2023-03-31T00:08:43;8.85;;;2.00;;
7487;SDS011;3785;52.260;4.728;2023-03-31T00:12:04;7.32;;;1.60;;
7487;SDS011;3785;52.260;4.728;2023-03-31T00:15:25;6.22;;;1.52;;
7487;SDS011;3785;52.260;4.728;2023-03-31T00:18:46;8.05;;;1.80;;
7487;SDS011;3785;52.260;4.728;2023-03-31T00:22:09;8.45;;;1.65;;
7487;SDS011;3785;52.260;4.728;2023-03-31T00:25:30;9.75;;;1.85;;
7487;SDS011;3785;52.260;4.728;2023-03-31T00:28:51;7.82;;;1.38;;
7487;SDS011;3785;52.260;4.728;2023-03-31T00:32:12;8.40;;;2.10;;
7487;SDS011;3785;52.260;4.728;2023-03-31T00:35:36;3.80;;;1.00;;
7487;SDS011;3785;52.260;4.728;2023-03-31T00:38:58;10.27;;;1.80;;
7487;SDS011;3785;52.260;4.728;2023-03-31T00:42:29;4.68;;;1.25;;
7487;SDS011;3785;52.260;4.728;2023-03-31T00:45:49;6.43;;;1.02;;
7487;SDS011;3785;52.260;4.728;2023-03-31T00:49:12;6.55;;;1.50;;
7487;SDS011;3785;52.260;4.728;2023-03-31T00:52:58;8.18;;;1.30;;
7487;SDS011;3785;52.260;4.728;2023-03-31T00:56:22;10.52;;;1.85;;
7487;SDS011;3785;52.260;4.728;2023-03-31T00:59:48;7.13;;;1.42;;
7487;SDS011;3785;52.260;4.728;2023-03-31T01:03:11;8.40;;;1.70;;
7487;SDS011;3785;52.260;4.728;2023-03-31T01:06:31;7.03;;;1.40;;
7487;SDS011;3785;52.260;4.728;2023-03-31T01:09:52;4.25;;;1.38;;
7487;SDS011;3785;52.260;4.728;2023-03-31T01:13:18;8.40;;;1.42;;
7487;SDS011;3785;52.260;4.728;2023-03-31T01:16:39;5.35;;;1.35;;
7487;SDS011;3785;52.260;4.728;2023-03-31T01:20:23;4.85;;;1.38;;
7487;SDS011;3785;52.260;4.728;2023-03-31T01:24:13;4.22;;;1.05;;
7487;SDS011;3785;52.260;4.728;2023-03-31T01:27:59;4.22;;;1.10;;
7487;SDS011;3785;52.260;4.728;2023-03-31T01:35:19;8.70;;;1.88;;
7487;SDS011;3785;52.260;4.728;2023-03-31T01:42:24;4.03;;;1.42;;
7487;SDS011;3785;52.260;4.728;2023-03-31T01:46:11;5.40;;;1.48;;
7487;SDS011;3785;52.260;4.728;2023-03-31T01:56:42;4.65;;;2.08;;
7487;SDS011;3785;52.260;4.728;2023-03-31T02:00:11;3.75;;;1.55;;
7487;SDS011;3785;52.260;4.728;2023-03-31T02:03:39;7.57;;;2.17;;
7487;SDS011;3785;52.260;4.728;2023-03-31T02:07:09;5.97;;;1.83;;
7487;SDS011;3785;52.260;4.728;2023-03-31T02:10:34;3.42;;;1.45;;
7487;SDS011;3785;52.260;4.728;2023-03-31T02:13:55;3.65;;;1.85;;
7487;SDS011;3785;52.260;4.728;2023-03-31T02:17:17;3.95;;;1.30;;
7487;SDS011;3785;52.260;4.728;2023-03-31T02:20:40;4.63;;;1.90;;
7487;SDS011;3785;52.260;4.728;2023-03-31T02:24:03;5.90;;;1.30;;
7487;SDS011;3785;52.260;4.728;2023-03-31T02:27:34;3.65;;;1.30;;
7487;SDS011;3785;52.260;4.728;2023-03-31T02:34:58;4.47;;;1.33;;
7487;SDS011;3785;52.260;4.728;2023-03-31T02:38:19;1.98;;;1.05;;
7487;SDS011;3785;52.260;4.728;2023-03-31T02:41:40;6.25;;;1.50;;
7487;SDS011;3785;52.260;4.728;2023-03-31T02:45:05;4.20;;;1.48;;
7487;SDS011;3785;52.260;4.728;2023-03-31T02:48:47;5.18;;;1.20;;
7487;SDS011;3785;52.260;4.728;2023-03-31T03:14:22;3.03;;;1.08;;
7487;SDS011;3785;52.260;4.728;2023-03-31T03:18:04;3.67;;;1.15;;
7487;SDS011;3785;52.260;4.728;2023-03-31T03:21:25;5.10;;;1.50;;
7487;SDS011;3785;52.260;4.728;2023-03-31T03:24:47;5.15;;;1.50;;
7487;SDS011;3785;52.260;4.728;2023-03-31T03:28:07;2.80;;;1.35;;
7487;SDS011;3785;52.260;4.728;2023-03-31T03:31:28;2.78;;;1.38;;
7487;SDS011;3785;52.260;4.728;2023-03-31T03:34:49;3.30;;;1.05;;
7487;SDS011;3785;52.260;4.728;2023-03-31T03:38:10;5.10;;;1.50;;
7487;SDS011;3785;52.260;4.728;2023-03-31T03:41:30;3.55;;;1.48;;
7487;SDS011;3785;52.260;4.728;2023-03-31T03:44:52;3.22;;;1.30;;
7487;SDS011;3785;52.260;4.728;2023-03-31T03:48:12;2.38;;;1.20;;
7487;SDS011;3785;52.260;4.728;2023-03-31T03:51:33;4.07;;;1.52;;
7487;SDS011;3785;52.260;4.728;2023-03-31T03:54:53;4.85;;;1.60;;
7487;SDS011;3785;52.260;4.728;2023-03-31T03:58:15;5.55;;;1.15;;
7487;SDS011;3785;52.260;4.728;2023-03-31T04:01:38;3.50;;;1.05;;
7487;SDS011;3785;52.260;4.728;2023-03-31T04:04:59;2.55;;;1.40;;
7487;SDS011;3785;52.260;4.728;2023-03-31T04:08:20;5.78;;;1.23;;
7487;SDS011;3785;52.260;4.728;2023-03-31T04:11:40;3.65;;;1.30;;
7487;SDS011;3785;52.260;4.728;2023-03-31T04:15:01;3.53;;;0.98;;
7487;SDS011;3785;52.260;4.728;2023-03-31T04:18:22;3.50;;;1.00;;
7487;SDS011;3785;52.260;4.728;2023-03-31T04:21:43;2.15;;;0.98;;
7487;SDS011;3785;52.260;4.728;2023-03-31T04:25:04;3.35;;;1.17;;
7487;SDS011;3785;52.260;4.728;2023-03-31T04:28:35;2.80;;;1.08;;
7487;SDS011;3785;52.260;4.728;2023-03-31T04:31:57;2.50;;;0.90;;
7487;SDS011;3785;52.260;4.728;2023-03-31T04:35:18;2.70;;;1.20;;
7487;SDS011;3785;52.260;4.728;2023-03-31T04:38:39;3.50;;;1.25;;
7487;SDS011;3785;52.260;4.728;2023-03-31T04:42:00;3.63;;;1.35;;
7487;SDS011;3785;52.260;4.728;2023-03-31T04:45:20;3.70;;;1.17;;
7487;SDS011;3785;52.260;4.728;2023-03-31T04:48:41;5.43;;;1.67;;
7487;SDS011;3785;52.260;4.728;2023-03-31T04:52:01;2.53;;;1.40;;
7487;SDS011;3785;52.260;4.728;2023-03-31T04:55:22;2.63;;;1.40;;
7487;SDS011;3785;52.260;4.728;2023-03-31T04:58:43;4.38;;;1.38;;
7487;SDS011;3785;52.260;4.728;2023-03-31T05:02:03;3.35;;;1.33;;
7487;SDS011;3785;52.260;4.728;2023-03-31T05:05:24;4.65;;;1.52;;
7487;SDS011;3785;52.260;4.728;2023-03-31T05:08:44;4.75;;;1.67;;
7487;SDS011;3785;52.260;4.728;2023-03-31T05:12:05;3.97;;;1.42;;
7487;SDS011;3785;52.260;4.728;2023-03-31T05:15:26;4.07;;;1.13;;
7487;SDS011;3785;52.260;4.728;2023-03-31T05:18:46;3.70;;;1.40;;
7487;SDS011;3785;52.260;4.728;2023-03-31T05:22:07;4.70;;;1.40;;
7487;SDS011;3785;52.260;4.728;2023-03-31T05:25:27;4.07;;;1.50;;
7487;SDS011;3785;52.260;4.728;2023-03-31T05:28:52;3.97;;;1.27;;
7487;SDS011;3785;52.260;4.728;2023-03-31T05:32:13;3.15;;;1.50;;
7487;SDS011;3785;52.260;4.728;2023-03-31T05:35:33;4.15;;;1.20;;
7487;SDS011;3785;52.260;4.728;2023-03-31T05:38:54;4.38;;;1.17;;
7487;SDS011;3785;52.260;4.728;2023-03-31T05:42:14;3.17;;;1.05;;
7487;SDS011;3785;52.260;4.728;2023-03-31T05:45:35;5.38;;;1.70;;
7487;SDS011;3785;52.260;4.728;2023-03-31T05:48:56;3.42;;;1.08;;
7487;SDS011;3785;52.260;4.728;2023-03-31T05:52:17;2.05;;;1.20;;
7487;SDS011;3785;52.260;4.728;2023-03-31T05:55:38;3.28;;;1.10;;
7487;SDS011;3785;52.260;4.728;2023-03-31T05:58:59;2.65;;;1.20;;
7487;SDS011;3785;52.260;4.728;2023-03-31T06:02:20;3.88;;;1.20;;
7487;SDS011;3785;52.260;4.728;2023-03-31T06:05:46;2.70;;;1.00;;
7487;SDS011;3785;52.260;4.728;2023-03-31T06:09:12;2.90;;;1.20;;
7487;SDS011;3785;52.260;4.728;2023-03-31T06:12:33;3.40;;;1.08;;
7487;SDS011;3785;52.260;4.728;2023-03-31T06:15:58;1.75;;;1.05;;
7487;SDS011;3785;52.260;4.728;2023-03-31T06:19:19;3.70;;;1.20;;
7487;SDS011;3785;52.260;4.728;2023-03-31T06:22:39;2.00;;;1.02;;
7487;SDS011;3785;52.260;4.728;2023-03-31T06:26:01;1.35;;;0.90;;
7487;SDS011;3785;52.260;4.728;2023-03-31T06:29:23;4.15;;;1.23;;
7487;SDS011;3785;52.260;4.728;2023-03-31T06:32:43;3.38;;;1.52;;
7487;SDS011;3785;52.260;4.728;2023-03-31T06:36:04;2.75;;;1.10;;
7487;SDS011;3785;52.260;4.728;2023-03-31T06:39:25;1.65;;;1.00;;
7487;SDS011;3785;52.260;4.728;2023-03-31T06:42:46;1.30;;;0.85;;
7487;SDS011;3785;52.260;4.728;2023-03-31T06:46:06;2.47;;;0.80;;
7487;SDS011;3785;52.260;4.728;2023-03-31T06:49:27;1.35;;;0.90;;
7487;SDS011;3785;52.260;4.728;2023-03-31T06:52:48;1.45;;;0.70;;
7487;SDS011;3785;52.260;4.728;2023-03-31T06:56:11;1.45;;;0.73;;
7487;SDS011;3785;52.260;4.728;2023-03-31T06:59:32;1.55;;;0.80;;
7487;SDS011;3785;52.260;4.728;2023-03-31T07:02:53;2.45;;;0.60;;
7487;SDS011;3785;52.260;4.728;2023-03-31T07:06:13;1.45;;;0.80;;
7487;SDS011;3785;52.260;4.728;2023-03-31T07:09:34;1.45;;;0.60;;
7487;SDS011;3785;52.260;4.728;2023-03-31T07:12:55;1.70;;;0.60;;
7487;SDS011;3785;52.260;4.728;2023-03-31T07:16:15;2.50;;;0.85;;
7487;SDS011;3785;52.260;4.728;2023-03-31T07:19:36;3.28;;;0.75;;
7487;SDS011;3785;52.260;4.728;2023-03-31T07:22:56;1.48;;;0.70;;
7487;SDS011;3785;52.260;4.728;2023-03-31T07:26:17;1.60;;;0.80;;
7487;SDS011;3785;52.260;4.728;2023-03-31T07:29:38;2.60;;;0.95;;
7487;SDS011;3785;52.260;4.728;2023-03-31T07:33:00;2.05;;;1.10;;
7487;SDS011;3785;52.260;4.728;2023-03-31T07:36:21;1.63;;;0.80;;
7487;SDS011;3785;52.260;4.728;2023-03-31T07:39:42;1.70;;;0.82;;
7487;SDS011;3785;52.260;4.728;2023-03-31T07:43:02;3.08;;;1.05;;
7487;SDS011;3785;52.260;4.728;2023-03-31T07:46:24;4.40;;;1.05;;
7487;SDS011;3785;52.260;4.728;2023-03-31T07:49:46;4.32;;;1.40;;
7487;SDS011;3785;52.260;4.728;2023-03-31T07:53:07;3.80;;;1.20;;
7487;SDS011;3785;52.260;4.728;2023-03-31T07:56:28;4.45;;;1.73;;
7487;SDS011;3785;52.260;4.728;2023-03-31T07:59:48;4.93;;;1.50;;
7487;SDS011;3785;52.260;4.728;2023-03-31T08:03:09;2.05;;;1.33;;
7487;SDS011;3785;52.260;4.728;2023-03-31T08:06:29;5.78;;;1.75;;
7487;SDS011;3785;52.260;4.728;2023-03-31T08:09:50;3.42;;;1.65;;
7487;SDS011;3785;52.260;4.728;2023-03-31T08:13:11;5.03;;;1.63;;
7487;SDS011;3785;52.260;4.728;2023-03-31T08:16:31;2.38;;;1.33;;
7487;SDS011;3785;52.260;4.728;2023-03-31T08:19:52;2.95;;;1.27;;
7487;SDS011;3785;52.260;4.728;2023-03-31T08:23:12;5.68;;;1.48;;
7487;SDS011;3785;52.260;4.728;2023-03-31T08:26:33;3.60;;;1.38;;
7487;SDS011;3785;52.260;4.728;2023-03-31T08:29:54;4.20;;;1.48;;
7487;SDS011;3785;52.260;4.728;2023-03-31T08:33:14;6.10;;;2.17;;
7487;SDS011;3785;52.260;4.728;2023-03-31T08:36:35;4.45;;;1.23;;
7487;SDS011;3785;52.260;4.728;2023-03-31T08:39:56;3.17;;;1.40;;
7487;SDS011;3785;52.260;4.728;2023-03-31T08:43:22;3.65;;;1.33;;
7487;SDS011;3785;52.260;4.728;2023-03-31T08:46:46;4.53;;;1.50;;
7487;SDS011;3785;52.260;4.728;2023-03-31T08:50:18;3.35;;;1.38;;
7487;SDS011;3785;52.260;4.728;2023-03-31T08:53:43;5.10;;;2.20;;
7487;SDS011;3785;52.260;4.728;2023-03-31T08:57:14;7.20;;;1.85;;
7487;SDS011;3785;52.260;4.728;2023-03-31T09:00:44;2.85;;;1.30;;
7487;SDS011;3785;52.260;4.728;2023-03-31T09:04:15;5.07;;;1.65;;
7487;SDS011;3785;52.260;4.728;2023-03-31T09:07:51;3.38;;;1.27;;
7487;SDS011;3785;52.260;4.728;2023-03-31T09:11:40;4.82;;;1.45;;
7487;SDS011;3785;52.260;4.728;2023-03-31T09:15:10;6.18;;;1.30;;
7487;SDS011;3785;52.260;4.728;2023-03-31T09:18:52;2.72;;;1.48;;
7487;SDS011;3785;52.260;4.728;2023-03-31T09:22:21;4.45;;;1.85;;
7487;SDS011;3785;52.260;4.728;2023-03-31T09:25:43;3.75;;;1.25;;
7487;SDS011;3785;52.260;4.728;2023-03-31T09:29:06;7.72;;;1.30;;
7487;SDS011;3785;52.260;4.728;2023-03-31T09:32:34;6.85;;;2.05;;
7487;SDS011;3785;52.260;4.728;2023-03-31T09:35:57;4.82;;;1.48;;
7487;SDS011;3785;52.260;4.728;2023-03-31T09:39:18;3.92;;;1.40;;
7487;SDS011;3785;52.260;4.728;2023-03-31T09:42:39;4.30;;;1.15;;
7487;SDS011;3785;52.260;4.728;2023-03-31T09:46:00;4.85;;;1.45;;
7487;SDS011;3785;52.260;4.728;2023-03-31T09:49:22;4.80;;;1.40;;
7487;SDS011;3785;52.260;4.728;2023-03-31T09:52:47;4.57;;;1.23;;
7487;SDS011;3785;52.260;4.728;2023-03-31T09:56:10;3.50;;;1.17;;
7487;SDS011;3785;52.260;4.728;2023-03-31T09:59:33;4.72;;;1.30;;
7487;SDS011;3785;52.260;4.728;2023-03-31T10:02:54;3.75;;;1.23;;
7487;SDS011;3785;52.260;4.728;2023-03-31T10:06:15;5.55;;;1.42;;
7487;SDS011;3785;52.260;4.728;2023-03-31T10:09:37;5.90;;;1.20;;
7487;SDS011;3785;52.260;4.728;2023-03-31T10:12:58;5.10;;;1.30;;
7487;SDS011;3785;52.260;4.728;2023-03-31T10:16:21;4.85;;;1.10;;
7487;SDS011;3785;52.260;4.728;2023-03-31T10:19:47;4.45;;;1.33;;
7487;SDS011;3785;52.260;4.728;2023-03-31T10:23:22;4.53;;;1.58;;
7487;SDS011;3785;52.260;4.728;2023-03-31T10:26:47;3.38;;;1.23;;
7487;SDS011;3785;52.260;4.728;2023-03-31T10:30:09;6.40;;;2.28;;
7487;SDS011;3785;52.260;4.728;2023-03-31T10:33:32;6.20;;;1.42;;
7487;SDS011;3785;52.260;4.728;2023-03-31T10:36:57;4.82;;;1.02;;
7487;SDS011;3785;52.260;4.728;2023-03-31T10:40:20;4.05;;;1.25;;
7487;SDS011;3785;52.260;4.728;2023-03-31T10:43:47;4.00;;;1.30;;
7487;SDS011;3785;52.260;4.728;2023-03-31T10:50:34;4.97;;;1.20;;
7487;SDS011;3785;52.260;4.728;2023-03-31T10:53:59;3.40;;;1.10;;
7487;SDS011;3785;52.260;4.728;2023-03-31T10:57:24;2.35;;;1.10;;
7487;SDS011;3785;52.260;4.728;2023-03-31T11:01:10;7.43;;;1.13;;
7487;SDS011;3785;52.260;4.728;2023-03-31T11:04:46;3.15;;;1.13;;
7487;SDS011;3785;52.260;4.728;2023-03-31T11:08:40;4.18;;;1.25;;
7487;SDS011;3785;52.260;4.728;2023-03-31T11:19:42;4.18;;;1.27;;
7487;SDS011;3785;52.260;4.728;2023-03-31T11:23:35;4.15;;;1.00;;
7487;SDS011;3785;52.260;4.728;2023-03-31T11:41:46;4.03;;;1.10;;
7487;SDS011;3785;52.260;4.728;2023-03-31T11:45:17;5.72;;;1.30;;
7487;SDS011;3785;52.260;4.728;2023-03-31T11:52:19;4.05;;;1.10;;
7487;SDS011;3785;52.260;4.728;2023-03-31T11:55:42;3.80;;;1.00;;
7487;SDS011;3785;52.260;4.728;2023-03-31T11:59:06;5.80;;;1.55;;
7487;SDS011;3785;52.260;4.728;2023-03-31T12:02:35;2.60;;;1.00;;
7487;SDS011;3785;52.260;4.728;2023-03-31T12:06:05;2.85;;;0.85;;
7487;SDS011;3785;52.260;4.728;2023-03-31T12:09:37;4.65;;;0.90;;
7487;SDS011;3785;52.260;4.728;2023-03-31T12:17:11;2.78;;;1.08;;
7487;SDS011;3785;52.260;4.728;2023-03-31T12:20:32;2.53;;;0.63;;
7487;SDS011;3785;52.260;4.728;2023-03-31T12:23:58;3.42;;;0.70;;
7487;SDS011;3785;52.260;4.728;2023-03-31T12:27:24;3.60;;;0.73;;
7487;SDS011;3785;52.260;4.728;2023-03-31T12:30:53;1.25;;;0.50;;
7487;SDS011;3785;52.260;4.728;2023-03-31T12:34:15;2.78;;;0.70;;
7487;SDS011;3785;52.260;4.728;2023-03-31T12:45:40;4.05;;;0.70;;
7487;SDS011;3785;52.260;4.728;2023-03-31T12:56:18;1.98;;;0.82;;
7487;SDS011;3785;52.260;4.728;2023-03-31T12:59:40;3.47;;;0.82;;
7487;SDS011;3785;52.260;4.728;2023-03-31T13:06:54;2.80;;;0.80;;
7487;SDS011;3785;52.260;4.728;2023-03-31T13:10:23;4.00;;;1.20;;
7487;SDS011;3785;52.260;4.728;2023-03-31T13:13:58;3.20;;;1.00;;
7487;SDS011;3785;52.260;4.728;2023-03-31T13:17:24;2.85;;;0.98;;
7487;SDS011;3785;52.260;4.728;2023-03-31T13:20:58;1.55;;;0.60;;
7487;SDS011;3785;52.260;4.728;2023-03-31T13:24:20;4.00;;;0.88;;
7487;SDS011;3785;52.260;4.728;2023-03-31T13:27:48;2.85;;;0.95;;
7487;SDS011;3785;52.260;4.728;2023-03-31T13:31:10;1.70;;;0.90;;
7487;SDS011;3785;52.260;4.728;2023-03-31T13:34:39;1.67;;;0.90;;
7487;SDS011;3785;52.260;4.728;2023-03-31T13:38:08;2.92;;;1.20;;
7487;SDS011;3785;52.260;4.728;2023-03-31T13:57:38;1.80;;;0.95;;
7487;SDS011;3785;52.260;4.728;2023-03-31T14:05:03;3.80;;;0.80;;
7487;SDS011;3785;52.260;4.728;2023-03-31T14:08:40;1.92;;;0.80;;
7487;SDS011;3785;52.260;4.728;2023-03-31T14:23:11;2.42;;;1.00;;
7487;SDS011;3785;52.260;4.728;2023-03-31T14:26:59;2.05;;;0.90;;
7487;SDS011;3785;52.260;4.728;2023-03-31T14:37:45;2.05;;;0.90;;
7487;SDS011;3785;52.260;4.728;2023-03-31T14:41:12;1.20;;;0.60;;
7487;SDS011;3785;52.260;4.728;2023-03-31T14:44:36;2.08;;;0.73;;
7487;SDS011;3785;52.260;4.728;2023-03-31T14:47:58;2.15;;;0.80;;
7487;SDS011;3785;52.260;4.728;2023-03-31T14:51:35;3.45;;;0.70;;
7487;SDS011;3785;52.260;4.728;2023-03-31T14:54:55;0.98;;;0.60;;
7487;SDS011;3785;52.260;4.728;2023-03-31T14:58:22;1.40;;;0.82;;
7487;SDS011;3785;52.260;4.728;2023-03-31T15:01:48;2.65;;;1.15;;
7487;SDS011;3785;52.260;4.728;2023-03-31T15:05:17;1.92;;;0.60;;
7487;SDS011;3785;52.260;4.728;2023-03-31T15:08:51;0.70;;;0.47;;
7487;SDS011;3785;52.260;4.728;2023-03-31T15:12:15;2.63;;;0.70;;
7487;SDS011;3785;52.260;4.728;2023-03-31T15:15:37;3.22;;;0.63;;
7487;SDS011;3785;52.260;4.728;2023-03-31T15:18:59;1.02;;;0.70;;
7487;SDS011;3785;52.260;4.728;2023-03-31T15:22:21;0.98;;;0.47;;
7487;SDS011;3785;52.260;4.728;2023-03-31T15:25:46;2.15;;;0.63;;
7487;SDS011;3785;52.260;4.728;2023-03-31T15:29:18;1.05;;;0.50;;
7487;SDS011;3785;52.260;4.728;2023-03-31T15:32:41;1.75;;;0.80;;
7487;SDS011;3785;52.260;4.728;2023-03-31T15:36:02;0.88;;;0.70;;
7487;SDS011;3785;52.260;4.728;2023-03-31T15:39:23;4.20;;;0.82;;
7487;SDS011;3785;52.260;4.728;2023-03-31T15:42:47;1.77;;;0.65;;
7487;SDS011;3785;52.260;4.728;2023-03-31T15:46:09;2.35;;;0.75;;
7487;SDS011;3785;52.260;4.728;2023-03-31T15:49:35;2.78;;;0.70;;
7487;SDS011;3785;52.260;4.728;2023-03-31T15:52:56;2.88;;;0.82;;
7487;SDS011;3785;52.260;4.728;2023-03-31T16:00:00;1.10;;;0.55;;
7487;SDS011;3785;52.260;4.728;2023-03-31T16:03:28;1.30;;;0.70;;
7487;SDS011;3785;52.260;4.728;2023-03-31T16:07:01;1.85;;;0.60;;
7487;SDS011;3785;52.260;4.728;2023-03-31T16:10:27;2.78;;;0.90;;
7487;SDS011;3785;52.260;4.728;2023-03-31T16:13:52;1.42;;;0.68;;
7487;SDS011;3785;52.260;4.728;2023-03-31T16:17:58;1.05;;;0.55;;
7487;SDS011;3785;52.260;4.728;2023-03-31T16:21:06;1.40;;;0.63;;
7487;SDS011;3785;52.260;4.728;2023-03-31T16:24:29;1.35;;;0.70;;
7487;SDS011;3785;52.260;4.728;2023-03-31T16:27:52;1.38;;;0.60;;
7487;SDS011;3785;52.260;4.728;2023-03-31T16:31:48;0.82;;;0.60;;
7487;SDS011;3785;52.260;4.728;2023-03-31T16:35:03;0.82;;;0.50;;
7487;SDS011;3785;52.260;4.728;2023-03-31T16:38:25;2.08;;;0.77;;
7487;SDS011;3785;52.260;4.728;2023-03-31T16:41:47;1.90;;;0.70;;
7487;SDS011;3785;52.260;4.728;2023-03-31T16:45:09;1.50;;;0.70;;
7487;SDS011;3785;52.260;4.728;2023-03-31T16:48:29;2.08;;;0.88;;
7487;SDS011;3785;52.260;4.728;2023-03-31T16:51:53;1.27;;;0.73;;
7487;SDS011;3785;52.260;4.728;2023-03-31T16:55:14;2.58;;;0.60;;
7487;SDS011;3785;52.260;4.728;2023-03-31T16:58:35;2.20;;;0.75;;
7487;SDS011;3785;52.260;4.728;2023-03-31T17:01:56;1.85;;;0.50;;
7487;SDS011;3785;52.260;4.728;2023-03-31T17:05:17;2.65;;;0.70;;
7487;SDS011;3785;52.260;4.728;2023-03-31T17:08:39;2.22;;;0.57;;
7487;SDS011;3785;52.260;4.728;2023-03-31T17:12:00;1.90;;;0.95;;
7487;SDS011;3785;52.260;4.728;2023-03-31T17:15:20;2.00;;;0.73;;
7487;SDS011;3785;52.260;4.728;2023-03-31T17:18:42;1.52;;;0.80;;
7487;SDS011;3785;52.260;4.728;2023-03-31T17:22:03;1.00;;;0.55;;
7487;SDS011;3785;52.260;4.728;2023-03-31T17:25:23;1.85;;;0.60;;
7487;SDS011;3785;52.260;4.728;2023-03-31T17:28:44;3.00;;;0.90;;
7487;SDS011;3785;52.260;4.728;2023-03-31T17:32:05;2.88;;;0.80;;
7487;SDS011;3785;52.260;4.728;2023-03-31T17:35:25;3.28;;;0.80;;
7487;SDS011;3785;52.260;4.728;2023-03-31T17:38:46;4.47;;;0.77;;
7487;SDS011;3785;52.260;4.728;2023-03-31T17:42:06;1.33;;;0.77;;
7487;SDS011;3785;52.260;4.728;2023-03-31T17:45:28;3.15;;;0.85;;
7487;SDS011;3785;52.260;4.728;2023-03-31T17:48:49;1.88;;;0.55;;
7487;SDS011;3785;52.260;4.728;2023-03-31T17:52:12;1.05;;;0.60;;
7487;SDS011;3785;52.260;4.728;2023-03-31T17:55:33;1.25;;;0.80;;
7487;SDS011;3785;52.260;4.728;2023-03-31T17:58:57;1.13;;;0.80;;
7487;SDS011;3785;52.260;4.728;2023-03-31T18:02:18;2.70;;;1.08;;
7487;SDS011;3785;52.260;4.728;2023-03-31T18:05:38;3.55;;;1.05;;
7487;SDS011;3785;52.260;4.728;2023-03-31T18:09:00;2.75;;;1.05;;
7487;SDS011;3785;52.260;4.728;2023-03-31T18:12:20;4.75;;;1.33;;
7487;SDS011;3785;52.260;4.728;2023-03-31T18:15:48;1.60;;;0.80;;
7487;SDS011;3785;52.260;4.728;2023-03-31T18:19:11;4.13;;;1.10;;
7487;SDS011;3785;52.260;4.728;2023-03-31T18:22:31;2.75;;;1.15;;
7487;SDS011;3785;52.260;4.728;2023-03-31T18:25:52;3.38;;;1.30;;
7487;SDS011;3785;52.260;4.728;2023-03-31T18:29:13;5.47;;;1.13;;
7487;SDS011;3785;52.260;4.728;2023-03-31T18:32:34;3.60;;;1.23;;
7487;SDS011;3785;52.260;4.728;2023-03-31T18:35:54;6.68;;;1.52;;
7487;SDS011;3785;52.260;4.728;2023-03-31T18:39:18;4.10;;;1.13;;
7487;SDS011;3785;52.260;4.728;2023-03-31T18:42:38;3.60;;;1.13;;
7487;SDS011;3785;52.260;4.728;2023-03-31T18:46:00;6.18;;;1.63;;
7487;SDS011;3785;52.260;4.728;2023-03-31T18:49:20;3.42;;;1.40;;
7487;SDS011;3785;52.260;4.728;2023-03-31T18:52:41;3.22;;;1.08;;
7487;SDS011;3785;52.260;4.728;2023-03-31T18:56:02;6.32;;;1.20;;
7487;SDS011;3785;52.260;4.728;2023-03-31T18:59:22;5.30;;;1.52;;
7487;SDS011;3785;52.260;4.728;2023-03-31T19:02:43;4.13;;;1.45;;
7487;SDS011;3785;52.260;4.728;2023-03-31T19:06:05;5.47;;;1.83;;
7487;SDS011;3785;52.260;4.728;2023-03-31T19:09:28;4.25;;;1.50;;
7487;SDS011;3785;52.260;4.728;2023-03-31T19:12:49;4.25;;;1.33;;
7487;SDS011;3785;52.260;4.728;2023-03-31T19:16:10;2.88;;;1.25;;
7487;SDS011;3785;52.260;4.728;2023-03-31T19:19:31;4.82;;;1.30;;
7487;SDS011;3785;52.260;4.728;2023-03-31T19:22:51;3.70;;;1.30;;
7487;SDS011;3785;52.260;4.728;2023-03-31T19:26:13;4.53;;;1.27;;
7487;SDS011;3785;52.260;4.728;2023-03-31T19:29:35;1.80;;;0.80;;
7487;SDS011;3785;52.260;4.728;2023-03-31T19:32:56;2.47;;;0.80;;
7487;SDS011;3785;52.260;4.728;2023-03-31T19:36:16;3.15;;;0.73;;
7487;SDS011;3785;52.260;4.728;2023-03-31T19:39:37;1.45;;;0.65;;
7487;SDS011;3785;52.260;4.728;2023-03-31T19:42:57;2.30;;;0.80;;
7487;SDS011;3785;52.260;4.728;2023-03-31T19:46:18;4.50;;;1.02;;
7487;SDS011;3785;52.260;4.728;2023-03-31T19:49:39;2.50;;;1.00;;
7487;SDS011;3785;52.260;4.728;2023-03-31T19:52:59;5.43;;;1.30;;
7487;SDS011;3785;52.260;4.728;2023-03-31T19:56:20;5.32;;;1.58;;
7487;SDS011;3785;52.260;4.728;2023-03-31T19:59:44;4.72;;;1.50;;
7487;SDS011;3785;52.260;4.728;2023-03-31T20:03:04;4.75;;;1.33;;
7487;SDS011;3785;52.260;4.728;2023-03-31T20:06:26;3.60;;;1.77;;
7487;SDS011;3785;52.260;4.728;2023-03-31T20:09:47;5.15;;;1.70;;
7487;SDS011;3785;52.260;4.728;2023-03-31T20:13:08;4.60;;;1.90;;
7487;SDS011;3785;52.260;4.728;2023-03-31T20:16:30;6.70;;;1.58;;
7487;SDS011;3785;52.260;4.728;2023-03-31T20:19:50;4.63;;;1.58;;
7487;SDS011;3785;52.260;4.728;2023-03-31T20:23:11;4.95;;;1.40;;
7487;SDS011;3785;52.260;4.728;2023-03-31T20:26:32;3.85;;;1.42;;
7487;SDS011;3785;52.260;4.728;2023-03-31T20:29:53;2.85;;;1.52;;
7487;SDS011;3785;52.260;4.728;2023-03-31T20:33:13;5.57;;;1.65;;
7487;SDS011;3785;52.260;4.728;2023-03-31T20:36:35;3.42;;;1.30;;
7487;SDS011;3785;52.260;4.728;2023-03-31T20:39:56;5.35;;;1.83;;
7487;SDS011;3785;52.260;4.728;2023-03-31T20:43:16;5.22;;;2.00;;
7487;SDS011;3785;52.260;4.728;2023-03-31T20:46:37;6.25;;;1.80;;
7487;SDS011;3785;52.260;4.728;2023-03-31T20:49:58;4.95;;;1.80;;
7487;SDS011;3785;52.260;4.728;2023-03-31T20:53:19;4.35;;;1.70;;
7487;SDS011;3785;52.260;4.728;2023-03-31T20:56:40;7.45;;;2.75;;
7487;SDS011;3785;52.260;4.728;2023-03-31T21:00:00;10.13;;;2.60;;
7487;SDS011;3785;52.260;4.728;2023-03-31T21:03:22;5.82;;;2.50;;
7487;SDS011;3785;52.260;4.728;2023-03-31T21:06:43;6.95;;;2.25;;
7487;SDS011;3785;52.260;4.728;2023-03-31T21:10:05;8.57;;;2.50;;
7487;SDS011;3785;52.260;4.728;2023-03-31T21:13:27;7.53;;;1.88;;
7487;SDS011;3785;52.260;4.728;2023-03-31T21:16:49;6.47;;;2.08;;
7487;SDS011;3785;52.260;4.728;2023-03-31T21:20:09;3.38;;;1.52;;
7487;SDS011;3785;52.260;4.728;2023-03-31T21:23:30;7.68;;;1.80;;
7487;SDS011;3785;52.260;4.728;2023-03-31T21:26:51;4.65;;;1.92;;
7487;SDS011;3785;52.260;4.728;2023-03-31T21:30:12;5.88;;;1.70;;
7487;SDS011;3785;52.260;4.728;2023-03-31T21:33:34;4.47;;;1.80;;
7487;SDS011;3785;52.260;4.728;2023-03-31T21:36:56;6.30;;;1.75;;
7487;SDS011;3785;52.260;4.728;2023-03-31T21:40:17;8.30;;;1.88;;
7487;SDS011;3785;52.260;4.728;2023-03-31T21:43:37;8.23;;;1.90;;
7487;SDS011;3785;52.260;4.728;2023-03-31T21:46:58;5.40;;;2.10;;
7487;SDS011;3785;52.260;4.728;2023-03-31T21:50:18;6.18;;;1.85;;
7487;SDS011;3785;52.260;4.728;2023-03-31T21:53:39;6.70;;;2.42;;
7487;SDS011;3785;52.260;4.728;2023-03-31T21:57:01;7.65;;;2.08;;
7487;SDS011;3785;52.260;4.728;2023-03-31T22:00:21;7.32;;;2.25;;
7487;SDS011;3785;52.260;4.728;2023-03-31T22:03:42;4.55;;;2.30;;
7487;SDS011;3785;52.260;4.728;2023-03-31T22:07:03;5.65;;;2.50;;
7487;SDS011;3785;52.260;4.728;2023-03-31T22:10:24;6.65;;;1.73;;
7487;SDS011;3785;52.260;4.728;2023-03-31T22:13:44;9.77;;;1.98;;
7487;SDS011;3785;52.260;4.728;2023-03-31T22:17:05;5.18;;;1.90;;
7487;SDS011;3785;52.260;4.728;2023-03-31T22:20:25;5.90;;;2.05;;
7487;SDS011;3785;52.260;4.728;2023-03-31T22:23:46;5.07;;;2.00;;
7487;SDS011;3785;52.260;4.728;2023-03-31T22:27:07;6.18;;;2.33;;
7487;SDS011;3785;52.260;4.728;2023-03-31T22:30:27;7.57;;;2.40;;
7487;SDS011;3785;52.260;4.728;2023-03-31T22:33:48;12.13;;;3.22;;
7487;SDS011;3785;52.260;4.728;2023-03-31T22:37:08;7.60;;;2.78;;
7487;SDS011;3785;52.260;4.728;2023-03-31T22:40:29;9.35;;;2.58;;
7487;SDS011;3785;52.260;4.728;2023-03-31T22:43:50;7.40;;;3.50;;
7487;SDS011;3785;52.260;4.728;2023-03-31T22:47:10;11.25;;;3.72;;
7487;SDS011;3785;52.260;4.728;2023-03-31T22:50:31;11.23;;;3.30;;
7487;SDS011;3785;52.260;4.728;2023-03-31T22:53:52;9.90;;;2.88;;
7487;SDS011;3785;52.260;4.728;2023-03-31T22:57:13;12.25;;;3.25;;
7487;SDS011;3785;52.260;4.728;2023-03-31T23:00:34;13.20;;;3.33;;
7487;SDS011;3785;52.260;4.728;2023-03-31T23:03:54;10.38;;;2.60;;
7487;SDS011;3785;52.260;4.728;2023-03-31T23:07:15;11.07;;;3.08;;
7487;SDS011;3785;52.260;4.728;2023-03-31T23:10:35;11.30;;;3.45;;
7487;SDS011;3785;52.260;4.728;2023-03-31T23:13:56;13.10;;;3.42;;
7487;SDS011;3785;52.260;4.728;2023-03-31T23:17:16;10.65;;;3.17;;
7487;SDS011;3785;52.260;4.728;2023-03-31T23:20:37;15.48;;;4.10;;